青島 の空港の天気 - METARとTAF

青島流亭国際空港 ( ZSQD / TAO ) - 中国 山東省青島市
飛行場実況気象(Metar)
観測時間02/01 23:00 CST (02/01 15:00 UTC)
風向・風速北北西 3m/s
視程10km以上
天気現象
なし
気温-3℃
湿度50%
気圧1033hPa
METARZSQD 011500Z 33003MPS CAVOK M03/M12 Q1033 NOSIG
過去の天気等 Google飛行場航空写真 Wunderground天気予報

過去48時間のMETAR

飛行場予報(TAF)
発表時間: 2/01 17:03 CST (2/01 09:03 UTC)
予報対象時間: 1日20時 CST ~ 2日20時 CST
風向・風速北 4m/s
視程10km以上
なし
TAF ZSQD 010903Z 0112/0212 36004MPS CAVOK TX05/0206Z TNM04/0121Z